Time;durP1;ratioP1;P1;durP2;ratioP2;P2;SDS_P1;SDS_P2;PMS_P1;PMS_P2;Temp;Humidity;BMP_temperature;BMP_pressure;BME280_temperature;BME280_humidity;BME280_pressure;Samples;Min_cycle;Max_cycle;Signal;HPM_P1;HPM_P2
2022/03/15 00:01:21;;;;;;;11.33;4.70;;;6.60;99.90;;;;;;5049341;28;20183;-31
2022/03/15 00:03:48;;;;;;;7.60;4.27;;;6.70;99.90;;;;;;5049037;28;20184;-32
2022/03/15 00:06:13;;;;;;;8.23;4.27;;;6.70;99.90;;;;;;5049088;28;20209;-31
2022/03/15 00:08:40;;;;;;;8.20;4.33;;;6.70;99.90;;;;;;5047665;28;20199;-31
2022/03/15 00:11:07;;;;;;;7.43;4.57;;;6.60;99.90;;;;;;5048621;28;20180;-31
2022/03/15 00:13:35;;;;;;;7.03;4.37;;;6.50;99.90;;;;;;5051696;28;20178;-31
2022/03/15 00:16:01;;;;;;;10.10;4.87;;;6.50;99.90;;;;;;5052574;28;20187;-31
2022/03/15 00:18:30;;;;;;;8.97;4.50;;;6.40;99.90;;;;;;5053740;28;20182;-31
2022/03/15 00:21:01;;;;;;;7.53;4.80;;;6.40;99.90;;;;;;5052546;28;20552;-31
2022/03/15 00:23:28;;;;;;;8.20;4.53;;;6.30;99.90;;;;;;5052186;28;20212;-31
2022/03/15 00:25:54;;;;;;;7.60;4.60;;;6.30;99.90;;;;;;5052187;28;20187;-31
2022/03/15 00:28:24;;;;;;;7.37;4.37;;;6.30;99.90;;;;;;5052223;28;20186;-31
2022/03/15 00:30:50;;;;;;;8.83;5.30;;;6.30;99.90;;;;;;5051627;28;20179;-32
2022/03/15 00:33:17;;;;;;;12.23;5.70;;;6.20;99.90;;;;;;5052121;28;20182;-31
2022/03/15 00:35:43;;;;;;;9.50;5.70;;;6.10;99.90;;;;;;5051506;28;20182;-32
2022/03/15 00:38:09;;;;;;;11.17;5.67;;;5.90;99.90;;;;;;5034310;28;20228;-32
2022/03/15 00:40:35;;;;;;;7.60;5.40;;;5.80;99.90;;;;;;5035034;28;20207;-31
2022/03/15 00:43:01;;;;;;;8.30;5.07;;;5.80;99.90;;;;;;5035518;28;20253;-31
2022/03/15 00:45:30;;;;;;;10.97;5.53;;;5.90;99.90;;;;;;5052062;28;20261;-32
2022/03/15 00:47:58;;;;;;;11.20;5.20;;;5.80;99.90;;;;;;5035377;28;20211;-31
2022/03/15 00:50:25;;;;;;;10.70;5.43;;;5.80;99.90;;;;;;5034722;28;20198;-31
2022/03/15 00:52:52;;;;;;;11.03;5.43;;;5.80;99.90;;;;;;5051708;28;20209;-31
2022/03/15 00:55:18;;;;;;;6.90;4.63;;;5.80;99.90;;;;;;5034974;28;20213;-31
2022/03/15 00:57:44;;;;;;;8.53;4.60;;;5.90;99.90;;;;;;5035324;28;20180;-32
2022/03/15 01:00:13;;;;;;;7.70;4.77;;;5.90;99.90;;;;;;5034844;28;20217;-31
2022/03/15 01:02:39;;;;;;;10.30;4.70;;;5.90;99.90;;;;;;5051547;28;20214;-31
2022/03/15 01:05:06;;;;;;;8.10;5.13;;;6.00;99.90;;;;;;5051753;28;20270;-31
2022/03/15 01:07:33;;;;;;;8.27;4.90;;;6.00;99.90;;;;;;5051262;28;20278;-31
2022/03/15 01:09:59;;;;;;;9.53;4.87;;;6.00;99.90;;;;;;5051087;28;20241;-31
2022/03/15 01:12:25;;;;;;;10.73;5.30;;;6.00;99.90;;;;;;5052976;28;20170;-31
2022/03/15 01:14:51;;;;;;;10.83;5.00;;;6.00;99.90;;;;;;5051383;28;20187;-32
2022/03/15 01:17:19;;;;;;;8.87;5.17;;;6.00;99.90;;;;;;5051164;28;20183;-31
2022/03/15 01:19:45;;;;;;;9.50;4.80;;;6.00;99.90;;;;;;5051067;28;20209;-31
2022/03/15 01:22:11;;;;;;;9.67;4.50;;;5.90;99.90;;;;;;5051188;28;20183;-31
2022/03/15 01:24:37;;;;;;;8.77;4.53;;;5.80;99.90;;;;;;5050493;28;20187;-31
2022/03/15 01:27:03;;;;;;;8.90;5.53;;;5.70;99.90;;;;;;5034576;28;20206;-31
2022/03/15 01:29:29;;;;;;;10.70;5.40;;;5.60;99.90;;;;;;5050861;28;20206;-31
2022/03/15 01:31:55;;;;;;;10.57;5.00;;;5.50;99.90;;;;;;5051065;28;20180;-31
2022/03/15 01:34:22;;;;;;;8.77;4.80;;;5.60;99.90;;;;;;5051029;28;20296;-31
2022/03/15 01:36:50;;;;;;;7.33;4.63;;;5.70;99.90;;;;;;5050931;28;20269;-31
2022/03/15 01:39:16;;;;;;;9.00;4.90;;;5.70;99.90;;;;;;5034179;28;20245;-31
2022/03/15 01:41:44;;;;;;;7.47;5.17;;;5.70;99.90;;;;;;5051764;28;20231;-31
2022/03/15 01:44:19;;;;;;;9.00;4.70;;;5.70;99.90;;;;;;5051078;28;20178;-31
2022/03/15 01:46:46;;;;;;;10.53;4.97;;;5.70;99.90;;;;;;5050479;28;20230;-32
2022/03/15 01:49:18;;;;;;;7.57;4.80;;;5.80;99.90;;;;;;5050645;28;20194;-31
2022/03/15 01:51:46;;;;;;;11.40;4.97;;;5.70;99.90;;;;;;5050684;28;20170;-31
2022/03/15 01:54:14;;;;;;;11.90;4.90;;;5.70;99.90;;;;;;5050810;28;20183;-31
2022/03/15 01:56:43;;;;;;;11.00;4.60;;;5.60;99.90;;;;;;5050572;28;20654;-31
2022/03/15 01:59:13;;;;;;;10.07;4.63;;;5.50;99.90;;;;;;5033536;28;20225;-31
2022/03/15 02:01:41;;;;;;;7.83;4.30;;;5.50;99.90;;;;;;5050448;28;20231;-31
2022/03/15 02:04:08;;;;;;;8.00;4.40;;;5.50;99.90;;;;;;5050191;28;20228;-31
2022/03/15 02:06:50;;;;;;;6.17;4.20;;;5.50;99.90;;;;;;5050323;28;20203;-32
2022/03/15 02:09:16;;;;;;;9.47;4.57;;;5.50;99.90;;;;;;5050043;28;20198;-31
2022/03/15 02:11:43;;;;;;;6.70;4.47;;;5.50;99.90;;;;;;5051364;28;20174;-31
2022/03/15 02:14:09;;;;;;;8.50;4.60;;;5.50;99.90;;;;;;5050255;28;20170;-31
2022/03/15 02:16:35;;;;;;;8.03;4.83;;;5.60;99.90;;;;;;5050213;28;20222;-30
2022/03/15 02:19:01;;;;;;;10.13;5.17;;;5.60;99.90;;;;;;5033362;28;20229;-31
2022/03/15 02:21:28;;;;;;;9.43;4.47;;;5.60;99.90;;;;;;5050357;28;20224;-31
2022/03/15 02:23:55;;;;;;;8.97;5.23;;;5.70;99.90;;;;;;5050017;28;20178;-31
2022/03/15 02:26:21;;;;;;;11.17;5.63;;;5.70;99.90;;;;;;5051091;28;20201;-31
2022/03/15 02:28:46;;;;;;;7.63;4.77;;;5.80;99.90;;;;;;5033358;28;20202;-31
2022/03/15 02:31:13;;;;;;;7.67;4.27;;;5.70;99.90;;;;;;5049634;28;20178;-31
2022/03/15 02:33:39;;;;;;;6.73;4.30;;;5.80;99.90;;;;;;5049736;28;20185;-31
2022/03/15 02:36:05;;;;;;;8.47;4.87;;;5.80;99.90;;;;;;5049843;28;20193;-31
2022/03/15 02:38:30;;;;;;;8.47;4.73;;;5.80;99.90;;;;;;5049611;28;20194;-31
2022/03/15 02:40:56;;;;;;;6.83;4.60;;;5.80;99.90;;;;;;5049611;28;20227;-31
2022/03/15 02:43:22;;;;;;;9.00;4.67;;;5.80;99.90;;;;;;5049411;28;20185;-31
2022/03/15 02:45:48;;;;;;;10.33;5.33;;;5.70;99.90;;;;;;5049629;28;20210;-31
2022/03/15 02:48:14;;;;;;;12.97;6.40;;;5.70;99.90;;;;;;5049851;28;20178;-31
2022/03/15 02:50:40;;;;;;;9.93;6.07;;;5.70;99.90;;;;;;5033131;28;20194;-31
2022/03/15 02:53:06;;;;;;;12.80;8.17;;;5.70;99.90;;;;;;5032868;28;20177;-31
2022/03/15 02:55:33;;;;;;;8.03;6.27;;;5.70;99.90;;;;;;5049659;28;20184;-31
2022/03/15 02:58:00;;;;;;;10.00;4.77;;;5.70;99.90;;;;;;5049441;28;20244;-31
2022/03/15 03:00:27;;;;;;;9.70;5.00;;;5.70;99.90;;;;;;5032179;28;20287;-31
2022/03/15 03:02:57;;;;;;;6.87;4.83;;;5.70;99.90;;;;;;5050993;28;20178;-32
2022/03/15 03:05:23;;;;;;;10.23;5.53;;;5.70;99.90;;;;;;5049826;28;20186;-31
2022/03/15 03:07:49;;;;;;;7.83;4.87;;;5.70;99.90;;;;;;5049184;28;20207;-31
2022/03/15 03:10:16;;;;;;;7.83;4.33;;;5.70;99.90;;;;;;5048962;28;20289;-31
2022/03/15 03:12:48;;;;;;;7.67;4.03;;;5.70;99.90;;;;;;5048582;28;20217;-30
2022/03/15 03:15:15;;;;;;;7.30;4.13;;;5.70;99.90;;;;;;5049459;28;20180;-31
2022/03/15 03:17:44;;;;;;;6.57;3.90;;;5.80;99.90;;;;;;5049058;28;20185;-31
2022/03/15 03:20:12;;;;;;;6.00;3.83;;;5.70;99.90;;;;;;5048549;28;20229;-31
2022/03/15 03:22:42;;;;;;;5.53;3.40;;;5.70;99.90;;;;;;5049097;28;20182;-31
2022/03/15 03:25:09;;;;;;;7.50;4.03;;;5.70;99.90;;;;;;5049211;28;20240;-31
2022/03/15 03:27:35;;;;;;;6.60;3.37;;;5.70;99.90;;;;;;5049322;28;20237;-31
2022/03/15 03:30:02;;;;;;;8.97;3.87;;;5.70;99.90;;;;;;5032444;28;20244;-31
2022/03/15 03:32:28;;;;;;;7.57;4.60;;;5.70;99.90;;;;;;5049297;28;20182;-31
2022/03/15 03:34:55;;;;;;;7.67;3.77;;;5.70;99.90;;;;;;5032405;28;20183;-31
2022/03/15 03:37:21;;;;;;;5.37;3.70;;;5.60;99.90;;;;;;5049335;28;20175;-31
2022/03/15 03:39:47;;;;;;;5.27;3.00;;;5.60;99.90;;;;;;5049037;28;20261;-31
2022/03/15 03:42:13;;;;;;;6.50;3.73;;;5.60;99.90;;;;;;5032776;28;20292;-31
2022/03/15 03:44:42;;;;;;;7.03;3.80;;;5.60;99.90;;;;;;5050490;28;20179;-31
2022/03/15 03:47:08;;;;;;;5.00;3.40;;;5.60;99.90;;;;;;5050347;28;20207;-31
2022/03/15 03:49:34;;;;;;;6.13;3.47;;;5.50;99.90;;;;;;5052788;28;20198;-31
2022/03/15 03:52:01;;;;;;;4.97;3.37;;;5.40;99.90;;;;;;5052888;28;20178;-31
2022/03/15 03:54:27;;;;;;;4.90;3.30;;;5.40;99.90;;;;;;5052777;28;20174;-31
2022/03/15 03:56:53;;;;;;;5.63;3.27;;;5.40;99.90;;;;;;5052929;28;20269;-30
2022/03/15 03:59:19;;;;;;;6.93;3.70;;;5.40;99.90;;;;;;5071091;23;20313;-37
2022/03/15 04:01:47;;;;;;;6.97;3.70;;;5.30;99.90;;;;;;5052147;28;20242;-37
2022/03/15 04:04:14;;;;;;;6.13;3.73;;;5.40;99.90;;;;;;5035252;28;20273;-37
2022/03/15 04:06:40;;;;;;;6.00;3.60;;;5.40;99.90;;;;;;5052750;28;20213;-37
2022/03/15 04:09:06;;;;;;;4.83;3.37;;;5.40;99.90;;;;;;5032435;28;20201;-37
2022/03/15 04:11:32;;;;;;;7.13;4.23;;;5.40;99.90;;;;;;5049125;28;20197;-37
2022/03/15 04:13:59;;;;;;;6.53;3.50;;;5.40;99.90;;;;;;5032462;28;20239;-37
2022/03/15 04:16:37;;;;;;;8.37;4.00;;;5.40;99.90;;;;;;5033696;28;20171;-37
2022/03/15 04:19:04;;;;;;;6.37;4.03;;;5.40;99.90;;;;;;5034331;28;20728;-38
2022/03/15 04:21:30;;;;;;;6.67;4.23;;;5.40;99.90;;;;;;5049249;28;20275;-38
2022/03/15 04:23:57;;;;;;;7.23;4.40;;;5.30;99.90;;;;;;5048980;28;20188;-38
2022/03/15 04:26:24;;;;;;;10.77;4.20;;;5.30;99.90;;;;;;5048863;28;20217;-35
2022/03/15 04:28:51;;;;;;;7.00;4.30;;;5.30;99.90;;;;;;5048596;28;20256;-36
2022/03/15 04:31:17;;;;;;;8.53;4.40;;;5.20;99.90;;;;;;5010889;28;20229;-35
2022/03/15 04:33:43;;;;;;;5.57;3.83;;;5.20;99.90;;;;;;5020251;28;20187;-35
2022/03/15 04:36:09;;;;;;;8.47;4.17;;;5.20;99.90;;;;;;5020068;28;20185;-37
2022/03/15 04:38:35;;;;;;;6.23;4.30;;;5.20;99.90;;;;;;5030000;28;20199;-38
2022/03/15 04:41:05;;;;;;;7.23;4.37;;;5.20;99.90;;;;;;5031635;28;20270;-38
2022/03/15 04:43:32;;;;;;;10.20;4.50;;;5.20;99.90;;;;;;5030838;28;20191;-37
2022/03/15 04:45:58;;;;;;;8.03;4.20;;;5.10;99.90;;;;;;5032367;28;20552;-38
2022/03/15 04:48:24;;;;;;;7.77;4.10;;;5.20;99.90;;;;;;5031051;28;20188;-37
2022/03/15 04:50:51;;;;;;;8.37;4.60;;;5.20;99.90;;;;;;5032048;28;20606;-37
2022/03/15 04:53:18;;;;;;;7.53;4.80;;;5.20;99.90;;;;;;5031583;28;20182;-37
2022/03/15 04:55:47;;;;;;;8.77;4.40;;;5.20;99.90;;;;;;5031519;28;20194;-35
2022/03/15 04:58:12;;;;;;;5.10;3.70;;;5.30;99.90;;;;;;5030908;28;20267;-35
2022/03/15 05:00:38;;;;;;;7.67;4.10;;;5.30;99.90;;;;;;5032597;28;20212;-35
2022/03/15 05:03:05;;;;;;;8.03;4.20;;;5.30;99.90;;;;;;5031819;28;20178;-35
2022/03/15 05:05:31;;;;;;;10.37;4.83;;;5.30;99.90;;;;;;5032022;28;20181;-38
2022/03/15 05:07:57;;;;;;;10.03;5.17;;;5.30;99.90;;;;;;5030825;28;20544;-37
2022/03/15 05:13:07;;;;;;;7.70;5.00;;;5.40;99.90;;;;;;5019397;28;20186;-36
2022/03/15 05:15:33;;;;;;;7.23;4.30;;;5.50;99.90;;;;;;5013965;28;20175;-38
2022/03/15 05:18:01;;;;;;;8.37;4.50;;;5.40;99.90;;;;;;5031751;28;20236;-39
2022/03/15 05:20:29;;;;;;;5.50;3.60;;;5.40;99.90;;;;;;5031081;28;20234;-36
2022/03/15 05:22:55;;;;;;;6.10;3.67;;;5.50;99.90;;;;;;5031027;28;20179;-38
2022/03/15 05:25:22;;;;;;;10.97;4.17;;;5.50;99.90;;;;;;5031689;28;20218;-37
2022/03/15 05:27:48;;;;;;;5.83;3.67;;;5.50;99.90;;;;;;5031082;28;20214;-38
2022/03/15 05:30:15;;;;;;;7.17;3.80;;;5.50;99.90;;;;;;5014636;28;20220;-37
2022/03/15 05:32:41;;;;;;;6.53;3.70;;;5.60;99.90;;;;;;5031132;28;20214;-37
2022/03/15 05:35:07;;;;;;;8.07;4.27;;;5.60;99.90;;;;;;5014822;28;20211;-37
2022/03/15 05:37:33;;;;;;;7.07;4.03;;;5.60;99.90;;;;;;5031208;28;20691;-37
2022/03/15 05:39:59;;;;;;;5.47;3.73;;;5.60;99.90;;;;;;5014413;28;20206;-37
2022/03/15 05:42:25;;;;;;;7.63;4.00;;;5.60;99.90;;;;;;5029927;28;20722;-37
2022/03/15 05:44:51;;;;;;;5.67;3.57;;;5.60;99.90;;;;;;5012573;28;20278;-37
2022/03/15 05:47:17;;;;;;;8.73;4.10;;;5.60;99.90;;;;;;5011818;28;20273;-37
2022/03/15 05:49:43;;;;;;;7.93;4.60;;;5.60;99.90;;;;;;5027435;28;20297;-39
2022/03/15 05:52:09;;;;;;;6.20;3.93;;;5.60;99.90;;;;;;5027484;28;20266;-38
2022/03/15 05:54:35;;;;;;;7.90;4.60;;;5.70;99.90;;;;;;5027324;28;20183;-38
2022/03/15 05:57:01;;;;;;;6.47;4.40;;;5.60;99.90;;;;;;5026655;28;20183;-38
2022/03/15 05:59:27;;;;;;;9.53;4.43;;;5.60;99.90;;;;;;5031055;28;20214;-38
2022/03/15 06:01:54;;;;;;;6.63;4.50;;;5.60;99.90;;;;;;5030417;28;20269;-38
2022/03/15 06:04:24;;;;;;;8.20;4.60;;;5.60;99.90;;;;;;5030190;28;20190;-38
2022/03/15 06:06:50;;;;;;;11.23;4.70;;;5.60;99.90;;;;;;5015608;28;20210;-38
2022/03/15 06:09:16;;;;;;;10.27;4.93;;;5.60;99.90;;;;;;5032579;28;20211;-36
2022/03/15 06:11:41;;;;;;;8.13;4.40;;;5.60;99.90;;;;;;5029756;28;20187;-37
2022/03/15 06:14:07;;;;;;;7.77;4.30;;;5.60;99.90;;;;;;5030428;28;20270;-36
2022/03/15 06:16:33;;;;;;;9.53;5.00;;;5.60;99.90;;;;;;5030554;28;20182;-37
2022/03/15 06:18:59;;;;;;;6.73;4.03;;;5.70;99.90;;;;;;5031641;28;20308;-37
2022/03/15 06:21:25;;;;;;;10.47;4.80;;;5.70;99.90;;;;;;5031699;28;20189;-37
2022/03/15 06:23:51;;;;;;;6.57;4.37;;;5.70;99.90;;;;;;5030027;28;20190;-37
2022/03/15 06:26:20;;;;;;;6.73;3.90;;;5.80;99.90;;;;;;5030223;28;20203;-37
2022/03/15 06:28:46;;;;;;;5.90;3.87;;;5.70;99.90;;;;;;5030166;28;20194;-37
2022/03/15 06:31:14;;;;;;;8.37;4.33;;;5.80;99.90;;;;;;5013649;28;20185;-37
2022/03/15 06:33:42;;;;;;;6.90;4.20;;;5.80;99.90;;;;;;5013584;28;20281;-37
2022/03/15 06:36:11;;;;;;;5.33;3.70;;;5.80;99.90;;;;;;5030022;28;20194;-36
2022/03/15 06:38:40;;;;;;;9.87;4.27;;;5.80;99.90;;;;;;5029707;28;20250;-36
2022/03/15 06:41:06;;;;;;;5.97;4.33;;;5.90;99.90;;;;;;5013429;28;20186;-38
2022/03/15 06:43:32;;;;;;;9.67;4.27;;;5.90;99.90;;;;;;5013714;28;20175;-38
2022/03/15 06:45:58;;;;;;;6.67;4.47;;;6.00;99.90;;;;;;5029894;28;20293;-38
2022/03/15 06:48:24;;;;;;;7.37;4.03;;;6.00;99.90;;;;;;5029985;28;20171;-38
2022/03/15 06:50:49;;;;;;;9.70;4.23;;;5.90;99.90;;;;;;5029802;28;20203;-38
2022/03/15 06:53:15;;;;;;;15.03;4.57;;;5.90;99.90;;;;;;5013373;28;20180;-35
2022/03/15 06:55:41;;;;;;;9.43;4.27;;;5.90;99.90;;;;;;5029990;28;20178;-38
2022/03/15 06:58:07;;;;;;;8.27;4.27;;;5.80;99.90;;;;;;5029757;28;20171;-35
2022/03/15 07:00:33;;;;;;;7.87;4.13;;;5.80;99.90;;;;;;5030594;28;20217;-35
2022/03/15 07:02:59;;;;;;;7.60;4.20;;;5.80;99.90;;;;;;5013065;28;20186;-35
2022/03/15 07:05:26;;;;;;;8.30;4.30;;;5.90;99.90;;;;;;5013056;28;20244;-37
2022/03/15 07:07:52;;;;;;;7.40;4.00;;;6.00;99.90;;;;;;5012963;28;20298;-37
2022/03/15 07:10:19;;;;;;;8.17;4.80;;;6.00;99.90;;;;;;5030634;28;20210;-35
2022/03/15 07:12:45;;;;;;;8.90;4.53;;;6.00;99.90;;;;;;5032860;28;20198;-38
2022/03/15 07:15:11;;;;;;;10.63;4.57;;;6.10;99.90;;;;;;5031657;28;20260;-38
2022/03/15 07:17:37;;;;;;;6.93;4.30;;;6.10;99.90;;;;;;5028983;28;20196;-35
2022/03/15 07:20:04;;;;;;;7.40;3.70;;;6.10;99.90;;;;;;5011899;28;20207;-35
2022/03/15 07:22:30;;;;;;;8.10;4.30;;;6.20;99.90;;;;;;5030637;28;20265;-37
2022/03/15 07:24:56;;;;;;;8.97;4.93;;;6.20;99.90;;;;;;5033294;28;20278;-35
2022/03/15 07:27:22;;;;;;;10.50;4.37;;;6.20;99.90;;;;;;5016595;28;20218;-35
2022/03/15 07:29:48;;;;;;;7.57;4.50;;;6.30;99.90;;;;;;5033111;28;20208;-35
2022/03/15 07:32:14;;;;;;;6.50;4.40;;;6.30;99.90;;;;;;5035199;28;20640;-35
2022/03/15 07:34:40;;;;;;;8.97;4.40;;;6.30;99.90;;;;;;5033257;28;20178;-35
2022/03/15 07:37:06;;;;;;;8.50;4.77;;;6.30;99.90;;;;;;5016948;28;20183;-36
2022/03/15 07:39:32;;;;;;;9.63;5.73;;;6.30;99.90;;;;;;5033371;28;20202;-35
2022/03/15 07:41:58;;;;;;;10.47;5.97;;;6.40;99.90;;;;;;5034861;28;20182;-35
2022/03/15 07:44:23;;;;;;;8.80;6.00;;;6.40;99.90;;;;;;5016932;28;20179;-38
2022/03/15 07:46:49;;;;;;;8.27;5.97;;;6.40;99.90;;;;;;5017031;28;20206;-38
2022/03/15 07:49:20;;;;;;;79.03;37.80;;;6.40;99.90;;;;;;5016188;28;20204;-38
2022/03/15 07:51:48;;;;;;;40.50;21.40;;;6.50;99.90;;;;;;5033308;28;20282;-37
2022/03/15 07:54:14;;;;;;;31.13;17.73;;;6.60;99.90;;;;;;5033196;28;20184;-38
2022/03/15 07:56:42;;;;;;;13.17;7.47;;;6.60;99.90;;;;;;5017323;28;20213;-38
2022/03/15 07:59:08;;;;;;;8.90;5.77;;;6.70;99.90;;;;;;5032752;28;20222;-39
2022/03/15 08:01:34;;;;;;;8.93;6.27;;;6.70;99.90;;;;;;5049905;28;20216;-37
2022/03/15 08:04:01;;;;;;;12.30;6.20;;;6.70;99.90;;;;;;5049692;28;20208;-37
2022/03/15 08:06:27;;;;;;;12.23;5.93;;;6.70;99.90;;;;;;5049558;28;20212;-38
2022/03/15 08:08:57;;;;;;;6.67;4.60;;;6.70;99.90;;;;;;5033972;28;20187;-39
2022/03/15 08:11:26;;;;;;;8.33;5.50;;;6.80;99.90;;;;;;5049478;28;20196;-38
2022/03/15 08:13:53;;;;;;;7.23;4.60;;;6.70;99.90;;;;;;5049659;28;20263;-37
2022/03/15 08:16:21;;;;;;;6.20;4.50;;;6.70;99.90;;;;;;5032847;28;20176;-38
2022/03/15 08:18:49;;;;;;;7.67;4.30;;;6.70;99.90;;;;;;5049108;28;20179;-37
2022/03/15 08:21:15;;;;;;;7.33;4.40;;;6.70;99.90;;;;;;5049000;28;20188;-36
2022/03/15 08:23:41;;;;;;;5.57;4.23;;;6.70;99.90;;;;;;5049447;28;20222;-37
2022/03/15 08:26:07;;;;;;;6.83;4.20;;;6.70;99.90;;;;;;5049314;28;20195;-35
2022/03/15 08:28:33;;;;;;;7.93;4.30;;;6.80;99.90;;;;;;5033596;28;20177;-37
2022/03/15 08:31:00;;;;;;;5.87;4.03;;;6.80;99.90;;;;;;5032432;28;20204;-36
2022/03/15 08:33:26;;;;;;;5.57;4.47;;;6.80;99.90;;;;;;5015768;28;20181;-36
2022/03/15 08:35:52;;;;;;;7.17;4.33;;;6.80;99.90;;;;;;5016254;28;20192;-35
2022/03/15 08:38:18;;;;;;;11.00;5.50;;;6.90;99.90;;;;;;5032705;28;20185;-35
2022/03/15 08:40:45;;;;;;;9.13;5.70;;;6.80;99.90;;;;;;5032201;28;20212;-38
2022/03/15 08:43:13;;;;;;;9.87;6.00;;;6.80;99.90;;;;;;5033007;28;20263;-35
2022/03/15 08:45:39;;;;;;;10.70;6.30;;;6.90;99.90;;;;;;5015822;28;20181;-35
2022/03/15 08:48:06;;;;;;;8.73;5.90;;;6.90;99.90;;;;;;5032758;28;20224;-37
2022/03/15 08:50:33;;;;;;;11.13;5.70;;;6.90;99.90;;;;;;5016043;28;20575;-35
2022/03/15 08:53:01;;;;;;;8.97;5.77;;;6.90;99.90;;;;;;5016190;28;20181;-35
2022/03/15 08:55:28;;;;;;;10.90;5.57;;;6.90;99.90;;;;;;5032142;28;20188;-37
2022/03/15 08:57:54;;;;;;;7.27;4.73;;;7.00;99.90;;;;;;5015541;28;20189;-37
2022/03/15 09:00:21;;;;;;;8.80;5.67;;;7.00;99.90;;;;;;5015035;28;20329;-35
2022/03/15 09:02:48;;;;;;;9.57;5.40;;;7.10;99.90;;;;;;5049251;28;20229;-37
2022/03/15 09:05:18;;;;;;;9.40;5.47;;;7.10;99.90;;;;;;5048856;28;20182;-37
2022/03/15 09:07:47;;;;;;;8.13;5.30;;;7.10;99.90;;;;;;5048282;28;20218;-35
2022/03/15 09:10:13;;;;;;;9.67;5.37;;;7.10;99.90;;;;;;5048323;28;20195;-35
2022/03/15 09:12:39;;;;;;;7.33;5.03;;;7.20;99.90;;;;;;5048956;28;20193;-34
2022/03/15 09:15:05;;;;;;;9.57;5.53;;;7.20;99.90;;;;;;5031737;28;20185;-35
2022/03/15 09:17:31;;;;;;;9.03;5.50;;;7.20;99.90;;;;;;5048737;28;20210;-35
2022/03/15 09:19:56;;;;;;;9.10;5.27;;;7.20;99.90;;;;;;5047704;28;20238;-35
2022/03/15 09:22:24;;;;;;;8.50;5.20;;;7.30;99.90;;;;;;5048263;28;20187;-35
2022/03/15 09:24:51;;;;;;;9.47;5.43;;;7.30;99.90;;;;;;5048777;28;20178;-35
2022/03/15 09:27:17;;;;;;;8.30;5.33;;;7.30;99.90;;;;;;5048036;28;20249;-35
2022/03/15 09:29:43;;;;;;;10.00;4.90;;;7.40;99.90;;;;;;5047341;28;20217;-35
2022/03/15 09:32:10;;;;;;;7.97;4.73;;;7.40;99.90;;;;;;5047756;28;20184;-35
2022/03/15 09:34:37;;;;;;;9.73;5.07;;;7.40;99.90;;;;;;5048552;28;20173;-35
2022/03/15 09:37:04;;;;;;;6.87;5.43;;;7.50;99.90;;;;;;5033487;28;20183;-35
2022/03/15 09:39:30;;;;;;;10.70;7.30;;;7.50;99.90;;;;;;5032602;28;20190;-35
2022/03/15 09:41:59;;;;;;;13.60;8.43;;;7.50;99.90;;;;;;5046971;28;20185;-36
2022/03/15 09:44:30;;;;;;;13.50;8.13;;;7.60;99.90;;;;;;5047219;28;20187;-37
2022/03/15 09:47:01;;;;;;;12.23;8.07;;;7.50;99.90;;;;;;5047586;28;20214;-38
2022/03/15 09:49:28;;;;;;;14.53;7.37;;;7.50;99.90;;;;;;5047301;28;20197;-36
2022/03/15 09:51:57;;;;;;;12.07;7.40;;;7.50;99.90;;;;;;5047429;28;20185;-38
2022/03/15 09:54:25;;;;;;;21.40;12.40;;;7.50;99.90;;;;;;5047617;28;20181;-35
2022/03/15 09:56:51;;;;;;;11.80;7.33;;;7.50;99.90;;;;;;5030880;28;20200;-37
2022/03/15 09:59:20;;;;;;;14.10;8.50;;;7.50;99.90;;;;;;5047512;28;20225;-38
2022/03/15 10:01:51;;;;;;;14.53;8.60;;;7.50;99.90;;;;;;5047541;28;20196;-35
2022/03/15 10:04:19;;;;;;;13.53;8.10;;;7.50;99.90;;;;;;5047160;28;20181;-35
2022/03/15 10:06:45;;;;;;;12.47;8.40;;;7.50;99.90;;;;;;5047040;28;20212;-37
2022/03/15 10:09:12;;;;;;;10.30;7.57;;;7.50;99.90;;;;;;5030378;28;20196;-38
2022/03/15 10:11:38;;;;;;;12.13;7.13;;;7.50;99.90;;;;;;5047059;28;20182;-35
2022/03/15 10:14:05;;;;;;;10.30;6.60;;;7.50;99.90;;;;;;5030558;28;20244;-35
2022/03/15 10:16:36;;;;;;;9.27;6.63;;;7.50;99.90;;;;;;5047185;28;20304;-38
2022/03/15 10:19:03;;;;;;;10.40;6.57;;;7.50;99.90;;;;;;5046469;28;20213;-35
2022/03/15 10:21:48;;;;;;;10.70;7.47;;;7.50;99.90;;;;;;5046701;28;20181;-35
2022/03/15 10:24:27;;;;;;;8.57;6.70;;;7.50;99.90;;;;;;5046890;28;20182;-38
2022/03/15 10:26:55;;;;;;;9.37;7.40;;;7.50;99.90;;;;;;5046527;28;20224;-35
2022/03/15 10:29:23;;;;;;;11.50;6.77;;;7.40;99.90;;;;;;5030113;28;20217;-38
2022/03/15 10:31:51;;;;;;;16.57;6.60;;;7.40;99.90;;;;;;5029599;28;20220;-36
2022/03/15 10:34:18;;;;;;;15.67;7.57;;;7.40;99.90;;;;;;5031682;28;20181;-35
2022/03/15 10:36:49;;;;;;;11.10;7.50;;;7.50;99.90;;;;;;5046979;28;20186;-35
2022/03/15 10:39:16;;;;;;;9.43;6.40;;;7.50;99.90;;;;;;5046953;28;20344;-35
2022/03/15 10:41:57;;;;;;;11.33;6.87;;;7.40;99.90;;;;;;5047279;28;20186;-37
2022/03/15 10:44:29;;;;;;;9.30;5.83;;;7.50;99.90;;;;;;5046586;28;20177;-35
2022/03/15 10:47:15;;;;;;;10.20;6.67;;;7.50;99.90;;;;;;5046433;28;20289;-35
2022/03/15 10:49:45;;;;;;;13.80;8.30;;;7.50;99.90;;;;;;5031067;28;20220;-35
2022/03/15 10:52:11;;;;;;;9.50;7.30;;;7.50;99.90;;;;;;5046699;28;20186;-37
2022/03/15 10:54:37;;;;;;;11.83;7.60;;;7.60;99.90;;;;;;5046359;28;20665;-35
2022/03/15 10:57:03;;;;;;;13.13;7.90;;;7.60;99.90;;;;;;5030087;28;20189;-37
2022/03/15 10:59:29;;;;;;;10.97;8.20;;;7.60;99.90;;;;;;5045996;28;20291;-34
2022/03/15 11:01:55;;;;;;;11.43;7.83;;;7.70;99.90;;;;;;5046257;28;20236;-35
2022/03/15 11:04:23;;;;;;;9.97;7.10;;;7.70;99.90;;;;;;5031023;28;20186;-35
2022/03/15 11:06:52;;;;;;;12.33;7.70;;;7.70;99.90;;;;;;5046160;28;20229;-38
2022/03/15 11:09:31;;;;;;;11.83;7.20;;;7.70;99.90;;;;;;5045917;28;20257;-37
2022/03/15 11:12:02;;;;;;;11.70;6.97;;;7.70;99.90;;;;;;5046245;28;20324;-38
2022/03/15 11:14:47;;;;;;;17.93;9.30;;;7.70;99.90;;;;;;5029576;28;20179;-34
2022/03/15 11:17:19;;;;;;;14.53;8.67;;;7.80;99.90;;;;;;5046603;28;20261;-36
2022/03/15 11:19:54;;;;;;;11.40;7.50;;;7.80;99.90;;;;;;5045727;28;20209;-37
2022/03/15 11:22:23;;;;;;;11.37;7.00;;;7.80;99.90;;;;;;5046385;28;20257;-36
2022/03/15 11:25:08;;;;;;;11.90;7.40;;;7.80;99.90;;;;;;5046063;28;20185;-39
2022/03/15 11:27:41;;;;;;;9.70;7.03;;;7.80;99.90;;;;;;5030906;28;20202;-37
2022/03/15 11:30:10;;;;;;;14.93;10.20;;;7.70;99.90;;;;;;5045598;28;20300;-37
2022/03/15 11:32:36;;;;;;;13.77;8.10;;;7.70;99.90;;;;;;5029471;28;20276;-36
2022/03/15 11:35:05;;;;;;;13.17;7.37;;;7.70;99.90;;;;;;5046127;28;20185;-35
2022/03/15 11:37:31;;;;;;;11.33;7.80;;;7.70;99.90;;;;;;5046017;28;20607;-34
2022/03/15 11:40:01;;;;;;;11.13;7.47;;;7.70;99.90;;;;;;5046076;28;20202;-37
2022/03/15 11:42:28;;;;;;;12.73;8.60;;;7.70;99.90;;;;;;5045841;28;20265;-37
2022/03/15 11:45:09;;;;;;;11.47;7.63;;;7.70;99.90;;;;;;5046096;28;20184;-38
2022/03/15 11:48:04;;;;;;;14.33;8.03;;;7.70;99.90;;;;;;5045860;28;20215;-38
2022/03/15 11:50:39;;;;;;;16.47;7.50;;;7.80;99.90;;;;;;5016348;28;20214;-35
2022/03/15 11:53:23;;;;;;;9.07;7.27;;;7.80;99.90;;;;;;5045972;28;20177;-35
2022/03/15 11:56:07;;;;;;;16.30;8.40;;;7.80;99.90;;;;;;5045636;28;20643;-35
2022/03/15 11:58:34;;;;;;;11.70;7.50;;;7.80;99.90;;;;;;5029498;28;20193;-38
2022/03/15 12:01:12;;;;;;;13.23;7.40;;;7.80;99.90;;;;;;5028882;28;20674;-37
2022/03/15 12:03:54;;;;;;;8.47;6.97;;;7.80;99.90;;;;;;5030204;28;20208;-38
2022/03/15 12:06:24;;;;;;;12.47;6.93;;;7.70;99.90;;;;;;5029155;28;20169;-38
2022/03/15 12:08:53;;;;;;;10.43;7.30;;;7.70;99.90;;;;;;5030636;28;20186;-35
2022/03/15 12:11:33;;;;;;;9.87;6.80;;;7.70;99.90;;;;;;5032905;28;20185;-34
2022/03/15 12:14:40;;;;;;;11.37;7.53;;;7.70;99.90;;;;;;5032809;28;20182;-38
2022/03/15 12:17:07;;;;;;;9.67;6.57;;;7.70;99.90;;;;;;5022986;28;20198;-35
2022/03/15 12:19:47;;;;;;;11.63;7.47;;;7.80;99.90;;;;;;5033862;28;20198;-35
2022/03/15 12:22:37;;;;;;;17.70;10.00;;;7.80;99.90;;;;;;5032437;28;20639;-35
2022/03/15 12:25:07;;;;;;;15.67;9.40;;;7.80;99.90;;;;;;5032589;28;20192;-38
2022/03/15 12:27:41;;;;;;;12.20;7.30;;;7.80;99.90;;;;;;5032320;28;20213;-38
2022/03/15 12:30:08;;;;;;;11.90;7.20;;;7.80;99.90;;;;;;5032358;28;20218;-35
2022/03/15 12:32:34;;;;;;;11.90;7.60;;;7.90;99.90;;;;;;5015746;28;20175;-37
2022/03/15 12:35:00;;;;;;;14.57;9.10;;;7.90;99.90;;;;;;5006730;28;20190;-36
2022/03/15 12:37:33;;;;;;;14.43;8.53;;;7.80;99.90;;;;;;5024976;28;20188;-36
2022/03/15 12:40:03;;;;;;;11.17;7.90;;;7.80;99.90;;;;;;5023424;28;20214;-37
2022/03/15 12:42:29;;;;;;;11.60;7.60;;;7.90;99.90;;;;;;5025009;28;20179;-35
2022/03/15 12:45:07;;;;;;;14.77;9.10;;;7.90;99.90;;;;;;5022277;28;20685;-38
2022/03/15 12:47:38;;;;;;;15.77;12.10;;;7.90;99.90;;;;;;5021687;28;20197;-36
2022/03/15 12:50:12;;;;;;;13.20;8.77;;;7.90;99.90;;;;;;5020553;28;20199;-37
2022/03/15 12:52:49;;;;;;;9.93;6.77;;;7.90;99.90;;;;;;5023603;28;20236;-35
2022/03/15 12:55:23;;;;;;;11.97;7.73;;;7.90;99.90;;;;;;5023273;28;20197;-35
2022/03/15 12:57:55;;;;;;;15.00;8.80;;;7.80;99.90;;;;;;5020958;28;20213;-36
2022/03/15 13:00:24;;;;;;;12.77;8.30;;;7.70;99.90;;;;;;5047316;28;20267;-35